Time;durP1;ratioP1;P1;durP2;ratioP2;P2;SDS_P1;SDS_P2;PMS_P1;PMS_P2;Temp;Humidity;BMP_temperature;BMP_pressure;BME280_temperature;BME280_humidity;BME280_pressure;Samples;Min_cycle;Max_cycle;Signal;HPM_P1;HPM_P2
2021/03/29 00:00:00;;;;;;;4.55;3.00;;;;;;;-0.96;86.20;94388.06;2106701;28;20063;-81
2021/03/29 00:01:01;;;;;;;5.13;2.95;;;;;;;-0.92;86.00;94386.38;2106675;28;20031;-80
2021/03/29 00:02:02;;;;;;;5.47;3.03;;;;;;;-0.92;85.83;94393.44;2091624;28;20021;-83
2021/03/29 00:03:03;;;;;;;4.82;3.10;;;;;;;-0.91;86.21;94390.53;2081838;28;20075;-83
2021/03/29 00:04:04;;;;;;;4.20;2.75;;;;;;;-0.93;85.27;94384.81;2098030;28;20054;-81
2021/03/29 00:05:05;;;;;;;6.93;3.22;;;;;;;-0.90;84.78;94381.56;2081477;28;20040;-82
2021/03/29 00:06:05;;;;;;;5.57;2.42;;;;;;;-0.86;85.53;94382.50;2081536;28;20060;-81
2021/03/29 00:07:07;;;;;;;3.80;2.58;;;;;;;-0.91;86.39;94382.66;2089956;28;20431;-84
2021/03/29 00:08:21;;;;;;;5.30;2.85;;;;;;;-0.94;86.73;94385.91;2098349;28;20497;-83
2021/03/29 00:09:24;;;;;;;4.82;2.67;;;;;;;-0.95;86.23;94379.13;2098137;28;20024;-82
2021/03/29 00:10:26;;;;;;;4.75;2.72;;;;;;;-0.96;86.41;94385.44;2082184;28;20017;-81
2021/03/29 00:11:27;;;;;;;6.43;2.58;;;;;;;-0.94;85.75;94378.03;2090151;28;20070;-80
2021/03/29 00:12:28;;;;;;;5.90;2.50;;;;;;;-0.92;86.02;94381.13;2098268;28;20093;-82
2021/03/29 00:13:30;;;;;;;5.03;2.50;;;;;;;-0.99;85.92;94378.19;2112524;28;20054;-82
2021/03/29 00:14:32;;;;;;;5.90;3.10;;;;;;;-0.94;85.92;94374.63;2114883;28;20586;-81
2021/03/29 00:15:39;;;;;;;2.92;2.35;;;;;;;-0.91;85.73;94379.28;2114714;28;20015;-83
2021/03/29 00:16:40;;;;;;;3.88;2.13;;;;;;;-0.96;85.47;94374.19;2099852;28;20027;-81
2021/03/29 00:17:41;;;;;;;3.33;2.38;;;;;;;-1.00;85.54;94375.88;2106550;28;20099;-82
2021/03/29 00:18:43;;;;;;;4.88;2.63;;;;;;;-1.04;86.00;94376.50;2097996;28;20435;-80
2021/03/29 00:19:44;;;;;;;5.07;2.60;;;;;;;-0.93;85.83;94374.31;2098179;28;20533;-81
2021/03/29 00:20:49;;;;;;;4.57;2.53;;;;;;;-0.90;86.24;94370.31;2098030;28;20370;-79
2021/03/29 00:21:50;;;;;;;4.07;2.13;;;;;;;-1.07;85.97;94369.25;2090316;28;20444;-83
2021/03/29 00:22:53;;;;;;;4.72;2.50;;;;;;;-1.11;86.34;94368.31;2089808;28;20021;-82
2021/03/29 00:23:53;;;;;;;2.95;2.28;;;;;;;-1.09;86.31;94368.78;2097238;28;20440;-80
2021/03/29 00:24:54;;;;;;;4.95;2.40;;;;;;;-1.12;86.31;94363.41;2097760;28;20108;-82
2021/03/29 00:25:55;;;;;;;4.35;2.25;;;;;;;-1.11;86.62;94373.56;2106152;28;20016;-80
2021/03/29 00:26:55;;;;;;;5.03;2.20;;;;;;;-1.10;87.47;94362.00;2106376;28;20111;-82
2021/03/29 00:27:57;;;;;;;3.05;2.45;;;;;;;-1.06;86.71;94375.25;2098026;28;20489;-81
2021/03/29 00:28:58;;;;;;;3.70;2.47;;;;;;;-1.04;86.66;94373.13;2097973;28;20028;-80
2021/03/29 00:29:59;;;;;;;3.05;2.30;;;;;;;-1.09;87.32;94366.16;2098031;28;20031;-81
2021/03/29 00:31:00;;;;;;;3.63;2.63;;;;;;;-1.16;87.59;94365.88;2097878;28;20111;-80
2021/03/29 00:32:02;;;;;;;5.38;2.33;;;;;;;-1.12;86.12;94364.16;2089771;28;20019;-81
2021/03/29 00:33:05;;;;;;;2.83;2.50;;;;;;;-1.16;86.96;94365.09;2090106;28;20485;-81
2021/03/29 00:34:06;;;;;;;5.05;2.28;;;;;;;-1.16;87.12;94363.25;2089729;28;20064;-82
2021/03/29 00:35:08;;;;;;;3.22;2.42;;;;;;;-1.20;87.39;94361.56;2084149;28;20531;-83
2021/03/29 00:36:10;;;;;;;2.28;2.08;;;;;;;-1.12;87.43;94356.28;2106157;28;20946;-81
2021/03/29 00:37:11;;;;;;;4.15;2.42;;;;;;;-1.15;86.61;94361.38;2098027;28;20521;-82
2021/03/29 00:38:13;;;;;;;4.43;2.55;;;;;;;-1.13;86.86;94356.63;2098070;28;20414;-81
2021/03/29 00:39:15;;;;;;;4.80;2.30;;;;;;;-1.14;87.29;94357.66;2089812;28;20493;-81
2021/03/29 00:40:17;;;;;;;4.90;2.60;;;;;;;-1.18;86.80;94354.91;2089640;28;20436;-81
2021/03/29 00:41:19;;;;;;;5.68;2.40;;;;;;;-1.22;86.70;94355.84;2081925;28;20033;-81
2021/03/29 00:42:20;;;;;;;3.08;2.08;;;;;;;-1.29;86.83;94357.06;2089491;28;20443;-83
2021/03/29 00:43:26;;;;;;;4.50;2.22;;;;;;;-1.32;86.90;94357.72;2097299;28;20037;-82
2021/03/29 00:44:27;;;;;;;3.72;2.97;;;;;;;-1.34;87.47;94351.22;2089474;28;20021;-82
2021/03/29 00:45:28;;;;;;;4.07;2.80;;;;;;;-1.23;87.19;94354.28;2098055;28;20427;-83
2021/03/29 00:46:30;;;;;;;5.60;2.55;;;;;;;-1.32;87.15;94352.47;2097686;28;20441;-81
2021/03/29 00:47:31;;;;;;;6.72;2.80;;;;;;;-1.30;87.42;94347.66;2089705;28;20024;-83
2021/03/29 00:48:34;;;;;;;3.45;2.92;;;;;;;-1.34;87.33;94345.97;2091266;28;20025;-82
2021/03/29 00:49:35;;;;;;;3.55;2.53;;;;;;;-1.34;88.06;94352.00;2098011;28;20032;-82
2021/03/29 00:50:50;;;;;;;3.35;2.25;;;;;;;-1.39;87.63;94348.75;2097788;28;20048;-81
2021/03/29 00:51:51;;;;;;;4.20;2.58;;;;;;;-1.34;87.21;94345.97;2099642;28;20474;-81
2021/03/29 00:52:52;;;;;;;4.13;2.35;;;;;;;-1.34;87.18;94353.84;2089524;28;20446;-81
2021/03/29 00:54:01;;;;;;;4.72;2.50;;;;;;;-1.41;87.34;94353.53;2097408;28;20442;-82
2021/03/29 00:55:01;;;;;;;3.33;2.40;;;;;;;-1.39;87.88;94348.75;2098706;28;20508;-82
2021/03/29 00:56:02;;;;;;;4.00;2.35;;;;;;;-1.42;87.54;94349.38;2094712;28;20444;-81
2021/03/29 00:57:04;;;;;;;3.38;2.40;;;;;;;-1.49;87.74;94351.69;2097859;28;20059;-82
2021/03/29 00:58:05;;;;;;;2.90;2.25;;;;;;;-1.45;87.34;94353.38;2106211;28;20446;-81
2021/03/29 00:59:09;;;;;;;3.55;2.40;;;;;;;-1.40;87.66;94349.84;2105948;28;20981;-83
2021/03/29 01:00:18;;;;;;;7.53;2.40;;;;;;;-1.35;87.03;94354.94;2098045;28;20443;-83
2021/03/29 01:01:25;;;;;;;5.80;2.58;;;;;;;-1.39;87.45;94354.00;2091852;28;20490;-82
2021/03/29 01:02:26;;;;;;;3.33;2.50;;;;;;;-1.41;87.02;94350.91;2098433;28;20040;-82
2021/03/29 01:03:36;;;;;;;2.88;2.10;;;;;;;-1.44;86.68;94365.44;2094150;28;20029;-80
2021/03/29 01:04:36;;;;;;;4.57;2.10;;;;;;;-1.42;86.68;94354.63;2098653;28;20455;-81
2021/03/29 01:05:37;;;;;;;4.25;2.22;;;;;;;-1.42;87.19;94352.75;2089271;28;20029;-80
2021/03/29 01:06:44;;;;;;;3.63;2.15;;;;;;;-1.47;87.76;94354.78;2097453;28;20205;-83
2021/03/29 01:07:47;;;;;;;3.75;2.40;;;;;;;-1.49;87.86;94357.72;2097603;28;20439;-83
2021/03/29 01:08:50;;;;;;;3.90;2.50;;;;;;;-1.49;87.51;94360.34;2090032;28;20452;-81
2021/03/29 01:09:51;;;;;;;3.42;2.20;;;;;;;-1.47;88.05;94354.78;2097696;28;20438;-81
2021/03/29 01:10:52;;;;;;;4.70;2.60;;;;;;;-1.47;87.44;94350.31;2097460;28;20450;-81
2021/03/29 01:11:58;;;;;;;4.25;2.25;;;;;;;-1.44;87.31;94351.53;2097588;28;20020;-82
2021/03/29 01:13:05;;;;;;;4.88;2.50;;;;;;;-1.47;86.92;94347.69;2105987;28;20433;-83
2021/03/29 01:14:09;;;;;;;3.15;2.15;;;;;;;-1.50;88.12;94352.75;2089950;28;20540;-82
2021/03/29 01:15:14;;;;;;;4.57;2.10;;;;;;;-1.47;87.27;94341.66;2082037;28;20517;-81
2021/03/29 01:16:19;;;;;;;5.60;2.40;;;;;;;-1.49;87.89;94355.09;2098542;28;20510;-83
2021/03/29 01:17:27;;;;;;;4.68;2.33;;;;;;;-1.56;88.35;94350.31;2097325;28;20426;-80
2021/03/29 01:18:28;;;;;;;2.40;2.10;;;;;;;-1.59;87.97;94345.66;2090409;28;20542;-84
2021/03/29 01:19:47;;;;;;;3.72;2.00;;;;;;;-1.56;88.32;94341.66;2089349;28;20431;-82
2021/03/29 01:21:25;;;;;;;3.45;2.17;;;;;;;-1.53;88.35;94343.69;2099943;28;20024;-82
2021/03/29 01:22:31;;;;;;;3.53;2.28;;;;;;;-1.46;87.88;94349.22;2094603;28;20526;-84
2021/03/29 01:23:32;;;;;;;3.35;2.20;;;;;;;-1.44;88.07;94348.94;2089783;28;20824;-83
2021/03/29 01:24:39;;;;;;;3.13;1.90;;;;;;;-1.43;87.71;94343.38;2094900;28;20462;-83
2021/03/29 01:25:47;;;;;;;3.83;2.10;;;;;;;-1.44;87.34;94341.06;2094207;28;20467;-82
2021/03/29 01:26:49;;;;;;;1.98;1.80;;;;;;;-1.42;87.40;94342.28;2105857;28;20671;-81
2021/03/29 01:28:12;;;;;;;6.50;2.00;;;;;;;-1.42;87.21;94346.75;2089182;28;20435;-82
2021/03/29 01:29:15;;;;;;;3.20;2.10;;;;;;;-1.45;87.38;94349.97;2091998;28;20450;-83
2021/03/29 01:30:17;;;;;;;2.70;1.92;;;;;;;-1.43;87.97;94339.97;2089686;28;20497;-82
2021/03/29 01:31:18;;;;;;;3.50;2.15;;;;;;;-1.45;87.20;94345.50;2097576;28;20852;-83
2021/03/29 01:32:21;;;;;;;4.15;1.83;;;;;;;-1.47;86.99;94342.44;2105292;28;20433;-81
2021/03/29 01:33:22;;;;;;;3.03;2.22;;;;;;;-1.41;88.13;94350.91;2097739;28;20028;-83
2021/03/29 01:34:23;;;;;;;3.65;2.33;;;;;;;-1.44;87.79;94349.69;2105742;28;20434;-83
2021/03/29 01:35:30;;;;;;;5.38;2.00;;;;;;;-1.46;87.68;94348.44;2089117;28;20435;-82
2021/03/29 01:36:31;;;;;;;3.15;2.00;;;;;;;-1.50;88.41;94353.53;2091003;28;20021;-82
2021/03/29 01:37:33;;;;;;;4.60;2.22;;;;;;;-1.51;88.85;94344.13;2105775;28;20819;-83
2021/03/29 01:38:35;;;;;;;2.90;1.92;;;;;;;-1.46;88.18;94346.59;2097579;28;20792;-84
2021/03/29 01:39:36;;;;;;;3.25;2.10;;;;;;;-1.49;88.36;94346.44;2089123;28;20462;-83
2021/03/29 01:40:39;;;;;;;2.53;2.10;;;;;;;-1.49;88.62;94344.59;2089094;28;20882;-80
2021/03/29 01:41:42;;;;;;;2.92;2.00;;;;;;;-1.49;88.66;94341.19;2089473;28;20772;-82
2021/03/29 01:42:43;;;;;;;3.65;2.28;;;;;;;-1.50;88.57;94335.19;2081400;28;20523;-81
2021/03/29 01:43:46;;;;;;;4.22;2.08;;;;;;;-1.53;89.03;94346.31;2081085;28;20535;-82
2021/03/29 01:44:47;;;;;;;4.43;2.17;;;;;;;-1.52;88.70;94342.59;2089415;28;20466;-81
2021/03/29 01:45:47;;;;;;;3.40;1.98;;;;;;;-1.49;88.06;94343.81;2100587;28;20453;-84
2021/03/29 01:46:49;;;;;;;4.00;2.15;;;;;;;-1.52;88.59;94351.22;2098018;28;20032;-82
2021/03/29 01:47:49;;;;;;;3.70;2.17;;;;;;;-1.46;88.05;94351.84;2089079;28;20448;-84
2021/03/29 01:48:50;;;;;;;5.82;2.38;;;;;;;-1.54;87.79;94352.59;2105136;28;20590;-82
2021/03/29 01:49:51;;;;;;;4.88;2.10;;;;;;;-1.58;88.68;94343.81;2097390;28;20024;-81
2021/03/29 01:50:53;;;;;;;3.70;1.85;;;;;;;-1.59;88.60;94340.41;2097201;28;20016;-84
2021/03/29 01:51:55;;;;;;;2.67;1.92;;;;;;;-1.60;89.00;94348.59;2081234;28;20476;-82
2021/03/29 01:52:56;;;;;;;4.32;2.08;;;;;;;-1.52;89.25;94342.59;2080882;28;20440;-81
2021/03/29 01:53:57;;;;;;;3.33;1.80;;;;;;;-1.55;89.36;94343.97;2080585;28;20440;-81
2021/03/29 01:55:00;;;;;;;4.10;1.95;;;;;;;-1.50;88.66;94334.41;2097007;28;20431;-80
2021/03/29 01:56:01;;;;;;;2.97;2.30;;;;;;;-1.56;89.27;94341.66;2097705;28;20403;-83
2021/03/29 01:57:10;;;;;;;2.70;1.80;;;;;;;-1.58;88.59;94334.13;2105396;28;20486;-82
2021/03/29 01:58:10;;;;;;;3.33;1.95;;;;;;;-1.63;88.86;94338.72;2090941;28;20058;-83
2021/03/29 01:59:11;;;;;;;2.28;1.88;;;;;;;-1.61;89.49;94333.97;2088758;28;20539;-83
2021/03/29 02:00:26;;;;;;;3.78;2.00;;;;;;;-1.70;88.58;94333.97;2097447;28;20047;-80
2021/03/29 02:01:27;;;;;;;2.72;1.73;;;;;;;-1.57;88.85;94330.41;2097254;28;20048;-82
2021/03/29 02:04:11;;;;;;;2.47;1.70;;;;;;;-1.71;89.42;94323.75;2147925;27;20113;-78
2021/03/29 02:05:13;;;;;;;3.05;2.10;;;;;;;-1.72;88.94;94330.09;2121631;28;20072;-78
2021/03/29 02:06:14;;;;;;;3.78;1.80;;;;;;;-1.77;89.69;94328.41;2113228;28;20461;-79
2021/03/29 02:07:15;;;;;;;2.78;1.85;;;;;;;-1.73;89.16;94336.41;2113018;28;20449;-78
2021/03/29 02:08:17;;;;;;;3.60;2.03;;;;;;;-1.73;88.37;94325.94;2112996;28;20032;-80
2021/03/29 02:09:17;;;;;;;3.85;2.03;;;;;;;-1.66;88.28;94324.41;2104493;28;20442;-82
2021/03/29 02:10:21;;;;;;;2.20;1.73;;;;;;;-1.70;88.23;94326.09;2113036;28;20492;-81
2021/03/29 02:11:23;;;;;;;5.00;1.90;;;;;;;-1.62;88.70;94324.56;2113824;27;20055;-82
2021/03/29 02:12:24;;;;;;;2.63;1.80;;;;;;;-1.57;88.74;94329.66;2112884;28;20876;-81
2021/03/29 02:13:31;;;;;;;4.88;2.17;;;;;;;-1.66;88.33;94323.63;2104743;28;20474;-80
2021/03/29 02:14:33;;;;;;;2.05;1.80;;;;;;;-1.65;88.75;94319.94;2112828;28;20445;-81
2021/03/29 02:15:34;;;;;;;3.78;1.90;;;;;;;-1.67;88.12;94319.44;2104767;28;20472;-80
2021/03/29 02:16:35;;;;;;;2.30;2.05;;;;;;;-1.64;88.32;94322.22;2105568;28;20510;-81
2021/03/29 02:17:37;;;;;;;3.33;1.67;;;;;;;-1.66;88.19;94326.25;2104475;28;20555;-82
2021/03/29 02:18:41;;;;;;;3.88;1.92;;;;;;;-1.70;88.24;94317.47;2104944;28;20520;-81
2021/03/29 02:19:43;;;;;;;3.60;1.85;;;;;;;-1.72;88.01;94315.13;2104630;28;20533;-81
2021/03/29 02:20:44;;;;;;;2.95;1.95;;;;;;;-1.72;88.89;94324.84;2096183;28;20589;-82
2021/03/29 02:21:45;;;;;;;2.05;1.85;;;;;;;-1.73;89.62;94315.44;2112993;28;20475;-81
2021/03/29 02:22:47;;;;;;;3.40;1.95;;;;;;;-1.68;88.62;94315.28;2130102;27;20384;-82
2021/03/29 02:23:49;;;;;;;3.35;1.80;;;;;;;-1.72;88.12;94314.38;2121269;28;20795;-80
2021/03/29 02:24:51;;;;;;;2.92;1.90;;;;;;;-1.73;88.59;94323.31;2112888;28;20441;-80
2021/03/29 02:25:52;;;;;;;4.18;2.00;;;;;;;-1.66;88.22;94321.78;2099773;28;20453;-81
2021/03/29 02:26:53;;;;;;;3.47;1.95;;;;;;;-1.72;88.61;94320.38;2104532;28;20446;-81
2021/03/29 02:27:54;;;;;;;2.38;1.70;;;;;;;-1.71;88.79;94321.16;2112962;28;20054;-80
2021/03/29 02:28:56;;;;;;;2.10;1.67;;;;;;;-1.71;89.38;94321.94;2104384;28;20476;-80
2021/03/29 02:29:56;;;;;;;2.20;2.00;;;;;;;-1.68;89.17;94323.94;2106166;28;20123;-80
2021/03/29 02:31:00;;;;;;;2.38;1.80;;;;;;;-1.67;88.81;94322.84;2096080;28;20447;-79
2021/03/29 02:32:03;;;;;;;3.65;1.83;;;;;;;-1.66;89.15;94321.78;2096953;28;20052;-80
2021/03/29 02:33:06;;;;;;;3.53;1.85;;;;;;;-1.69;89.33;94319.78;2106923;28;20437;-83
2021/03/29 02:34:07;;;;;;;1.95;1.83;;;;;;;-1.72;89.53;94312.50;2096532;28;20439;-81
2021/03/29 02:35:09;;;;;;;2.28;1.85;;;;;;;-1.64;89.38;94310.97;2104574;28;20512;-82
2021/03/29 02:36:10;;;;;;;2.55;1.73;;;;;;;-1.64;88.50;94319.59;2104406;28;20446;-80
2021/03/29 02:37:10;;;;;;;3.08;1.75;;;;;;;-1.66;89.21;94327.03;2104198;28;20545;-79
2021/03/29 02:38:16;;;;;;;1.65;1.55;;;;;;;-1.67;88.85;94320.22;2104355;28;20118;-80
2021/03/29 02:39:19;;;;;;;2.63;1.80;;;;;;;-1.70;88.82;94323.47;2105591;28;20123;-81
2021/03/29 02:40:23;;;;;;;2.05;1.60;;;;;;;-1.69;88.26;94325.00;2104780;28;21018;-80
2021/03/29 02:41:28;;;;;;;2.88;1.80;;;;;;;-1.65;89.27;94320.69;2105121;28;20443;-80
2021/03/29 02:42:28;;;;;;;4.68;2.13;;;;;;;-1.69;89.44;94324.25;2105499;28;20450;-82
2021/03/29 02:43:30;;;;;;;2.47;1.42;;;;;;;-1.66;89.13;94321.00;2112588;28;20462;-83
2021/03/29 02:44:31;;;;;;;2.90;1.80;;;;;;;-1.69;88.45;94325.00;2130125;27;20679;-82
2021/03/29 02:45:36;;;;;;;3.50;1.88;;;;;;;-1.69;88.63;94327.63;2129824;27;20456;-81
2021/03/29 02:46:36;;;;;;;2.72;1.80;;;;;;;-1.65;88.71;94333.81;2129751;27;20026;-81
2021/03/29 02:47:42;;;;;;;2.55;1.90;;;;;;;-1.68;88.26;94328.41;2121359;28;20743;-81
2021/03/29 02:48:45;;;;;;;2.03;1.83;;;;;;;-1.69;87.80;94330.25;2121915;27;20031;-81
2021/03/29 02:49:47;;;;;;;2.40;1.65;;;;;;;-1.73;88.28;94331.94;2121230;28;20490;-80
2021/03/29 02:50:51;;;;;;;2.38;1.60;;;;;;;-1.74;87.86;94329.63;2113209;27;20969;-79
2021/03/29 02:51:52;;;;;;;1.80;1.65;;;;;;;-1.71;88.41;94335.03;2121216;28;20449;-82
2021/03/29 02:52:55;;;;;;;2.97;1.95;;;;;;;-1.68;88.20;94336.25;2112763;28;20575;-79
2021/03/29 02:54:00;;;;;;;2.30;1.77;;;;;;;-1.73;89.02;94337.19;2105811;27;20414;-80
2021/03/29 02:55:01;;;;;;;2.30;1.52;;;;;;;-1.72;89.27;94337.97;2113589;27;20446;-82
2021/03/29 02:56:09;;;;;;;5.32;1.70;;;;;;;-1.71;88.40;94336.88;2115446;27;20533;-81
2021/03/29 02:57:10;;;;;;;3.72;1.88;;;;;;;-1.72;89.18;94340.56;2106294;28;20085;-80
2021/03/29 02:58:13;;;;;;;2.05;1.60;;;;;;;-1.72;88.67;94332.72;2095821;28;20830;-81
2021/03/29 02:59:18;;;;;;;1.90;1.65;;;;;;;-1.76;88.25;94335.16;2096457;28;20116;-81
2021/03/29 03:00:24;;;;;;;2.85;1.50;;;;;;;-1.78;88.53;94340.72;2105272;28;20450;-80
2021/03/29 03:01:26;;;;;;;2.28;1.40;;;;;;;-1.75;88.08;94339.34;2104955;28;20478;-82
2021/03/29 03:02:27;;;;;;;1.95;1.67;;;;;;;-1.73;88.63;94349.53;2104550;28;20982;-82
2021/03/29 03:03:28;;;;;;;3.47;1.60;;;;;;;-1.76;88.58;94348.28;2103875;28;20501;-83
2021/03/29 03:04:29;;;;;;;1.70;1.35;;;;;;;-1.82;87.43;94346.91;2105838;28;20028;-83
2021/03/29 03:05:32;;;;;;;2.30;1.65;;;;;;;-1.76;87.96;94345.66;2104263;28;20446;-83
2021/03/29 03:06:33;;;;;;;3.15;1.60;;;;;;;-1.76;88.04;94353.50;2120795;28;21273;-81
2021/03/29 03:07:35;;;;;;;4.55;2.00;;;;;;;-1.77;87.95;94344.88;2112512;28;20444;-82
2021/03/29 03:08:37;;;;;;;2.45;1.95;;;;;;;-1.85;87.94;94353.50;2111045;28;20028;-82
2021/03/29 03:09:41;;;;;;;5.25;1.70;;;;;;;-1.82;87.38;94350.28;2104268;28;20862;-81
2021/03/29 03:10:42;;;;;;;2.25;1.58;;;;;;;-1.92;88.22;94347.97;2096875;28;20459;-82
2021/03/29 03:11:44;;;;;;;4.70;1.95;;;;;;;-1.83;88.00;94358.47;2104020;28;20456;-81
2021/03/29 03:12:47;;;;;;;2.00;1.80;;;;;;;-1.85;88.93;94361.38;2104419;28;20522;-82
2021/03/29 03:13:49;;;;;;;2.35;1.63;;;;;;;-1.88;87.55;94354.13;2112785;28;20448;-82
2021/03/29 03:14:49;;;;;;;1.60;1.50;;;;;;;-1.87;88.68;94358.28;2111496;28;20441;-78
2021/03/29 03:15:50;;;;;;;3.22;1.98;;;;;;;-1.92;89.12;94353.19;2110866;28;20985;-81
2021/03/29 03:16:51;;;;;;;3.45;1.65;;;;;;;-1.94;89.67;94359.81;2103039;28;20020;-82
2021/03/29 03:17:52;;;;;;;2.17;1.60;;;;;;;-1.92;88.66;94360.28;2101993;28;20029;-80
2021/03/29 03:18:53;;;;;;;2.47;1.58;;;;;;;-1.88;88.99;94361.22;2115416;27;20416;-79
2021/03/29 03:19:53;;;;;;;1.65;1.55;;;;;;;-1.89;88.07;94362.28;2115372;28;20446;-81
2021/03/29 03:20:54;;;;;;;2.50;1.80;;;;;;;-1.91;88.52;94359.97;2123757;27;20467;-82
2021/03/29 03:21:54;;;;;;;2.95;1.67;;;;;;;-1.88;88.43;94356.00;2123935;27;20038;-80
2021/03/29 03:23:01;;;;;;;1.95;1.50;;;;;;;-1.89;88.01;94357.84;2132497;27;20702;-79
2021/03/29 03:24:03;;;;;;;3.33;1.70;;;;;;;-1.90;88.15;94355.50;2121763;27;20027;-79
2021/03/29 03:25:26;;;;;;;2.47;1.65;;;;;;;-1.88;88.53;94358.59;2106953;28;21045;-81
2021/03/29 03:26:28;;;;;;;2.88;1.55;;;;;;;-1.86;87.79;94353.81;2101379;28;20889;-79
2021/03/29 03:27:28;;;;;;;4.00;1.60;;;;;;;-1.88;88.28;94343.66;2104112;28;20469;-80
2021/03/29 03:28:29;;;;;;;1.58;1.48;;;;;;;-1.84;89.25;94349.06;2091596;28;20443;-79
2021/03/29 03:29:29;;;;;;;2.75;1.60;;;;;;;-1.83;89.30;94350.59;2104082;28;20101;-82
2021/03/29 03:30:36;;;;;;;5.45;1.70;;;;;;;-1.85;89.37;94355.34;2115420;28;20476;-80
2021/03/29 03:31:37;;;;;;;2.85;1.65;;;;;;;-1.80;88.93;94347.34;2116169;27;20066;-80
2021/03/29 03:32:39;;;;;;;3.75;2.00;;;;;;;-1.82;88.15;94360.00;2115255;28;20481;-81
2021/03/29 03:33:39;;;;;;;2.28;1.60;;;;;;;-1.82;88.59;94358.13;2106920;28;20052;-82
2021/03/29 03:34:41;;;;;;;2.45;1.63;;;;;;;-1.86;88.88;94351.97;2106685;28;20947;-82
2021/03/29 03:35:42;;;;;;;3.67;1.75;;;;;;;-1.86;88.82;94359.06;2107012;28;20063;-83
2021/03/29 03:36:43;;;;;;;2.67;1.90;;;;;;;-1.87;88.27;94360.16;2115238;28;20540;-83
2021/03/29 03:38:02;;;;;;;2.03;1.42;;;;;;;-1.88;88.87;94359.38;2098975;28;20462;-84
2021/03/29 03:39:03;;;;;;;2.67;1.50;;;;;;;-1.86;88.24;94356.44;2095077;28;20025;-84
2021/03/29 03:40:05;;;;;;;1.77;1.52;;;;;;;-1.87;88.13;94360.16;2106508;28;20532;-83
2021/03/29 03:41:08;;;;;;;2.30;1.70;;;;;;;-1.88;88.50;94364.63;2106668;28;20427;-83
2021/03/29 03:42:09;;;;;;;2.85;1.85;;;;;;;-1.91;89.21;94365.22;2113573;28;20460;-82
2021/03/29 03:43:13;;;;;;;3.70;1.90;;;;;;;-1.93;89.50;94364.78;2106810;28;20450;-83
2021/03/29 03:44:15;;;;;;;3.25;1.90;;;;;;;-1.91;89.06;94367.06;2106542;28;21185;-83
2021/03/29 03:45:19;;;;;;;5.25;2.15;;;;;;;-1.94;88.80;94365.81;2106252;27;21020;-83
2021/03/29 03:46:35;;;;;;;3.20;1.70;;;;;;;-1.92;88.46;94365.53;2106727;28;20469;-82
2021/03/29 03:47:38;;;;;;;3.33;1.63;;;;;;;-1.92;89.02;94365.53;2100265;28;20442;-82
2021/03/29 03:48:39;;;;;;;3.38;2.50;;;;;;;-1.98;89.42;94367.50;2097148;28;20466;-82
2021/03/29 03:49:40;;;;;;;2.53;1.85;;;;;;;-1.97;89.54;94366.44;2090041;28;20455;-82
2021/03/29 03:50:44;;;;;;;2.38;1.60;;;;;;;-1.93;89.00;94371.81;2106641;28;20028;-81
2021/03/29 03:51:47;;;;;;;4.03;2.13;;;;;;;-1.92;89.36;94370.78;2115110;28;20072;-84
2021/03/29 03:52:48;;;;;;;3.38;1.80;;;;;;;-1.96;88.98;94370.59;2098563;28;20545;-83
2021/03/29 03:53:49;;;;;;;2.47;1.88;;;;;;;-2.01;88.88;94370.75;2106324;28;20438;-83
2021/03/29 03:54:51;;;;;;;3.08;1.52;;;;;;;-2.05;88.48;94365.34;2106428;28;20962;-83
2021/03/29 03:55:53;;;;;;;2.10;1.80;;;;;;;-2.05;88.96;94369.81;2101729;28;20036;-85
2021/03/29 03:56:54;;;;;;;5.90;1.88;;;;;;;-2.07;88.69;94371.97;2098298;28;20886;-86
2021/03/29 03:57:55;;;;;;;4.85;1.80;;;;;;;-2.04;88.87;94366.13;2106897;28;20508;-83
2021/03/29 03:58:56;;;;;;;1.92;1.55;;;;;;;-2.04;88.49;94366.88;2106408;28;20822;-83
2021/03/29 03:59:56;;;;;;;2.95;1.80;;;;;;;-2.05;88.65;94375.06;2090038;28;20071;-82
2021/03/29 04:00:59;;;;;;;2.45;1.83;;;;;;;-2.09;88.40;94366.25;2111831;28;20498;-83
2021/03/29 04:02:07;;;;;;;3.33;1.48;;;;;;;-2.06;88.42;94376.91;2123717;27;20027;-84
2021/03/29 04:03:08;;;;;;;2.92;1.52;;;;;;;-2.04;88.64;94373.97;2114837;28;20485;-82
2021/03/29 04:04:08;;;;;;;1.60;1.50;;;;;;;-2.05;87.87;94375.06;2106070;28;20710;-83
2021/03/29 04:05:16;;;;;;;2.88;2.00;;;;;;;-2.14;87.75;94374.28;2114935;28;20027;-82
2021/03/29 04:06:17;;;;;;;1.75;1.55;;;;;;;-2.09;88.65;94371.50;2099061;28;20029;-83
2021/03/29 04:07:17;;;;;;;4.50;1.80;;;;;;;-2.12;88.96;94364.25;2089983;28;20435;-81
2021/03/29 04:08:17;;;;;;;4.85;1.63;;;;;;;-2.17;88.93;94374.88;2098022;28;20115;-84
2021/03/29 04:09:21;;;;;;;4.10;1.85;;;;;;;-2.15;88.73;94370.09;2097734;28;20039;-84
2021/03/29 04:10:25;;;;;;;3.60;1.60;;;;;;;-2.18;88.47;94373.31;2090501;28;20116;-84
2021/03/29 04:11:27;;;;;;;4.28;1.70;;;;;;;-2.12;88.24;94372.88;2106826;28;20943;-85
2021/03/29 04:12:28;;;;;;;2.25;1.67;;;;;;;-2.12;88.24;94372.09;2098050;28;20456;-82
2021/03/29 04:13:30;;;;;;;3.40;2.00;;;;;;;-2.16;87.99;94382.41;2098275;28;20443;-83
2021/03/29 04:14:30;;;;;;;2.55;1.35;;;;;;;-2.16;88.57;94376.41;2097902;28;20891;-82
2021/03/29 04:15:31;;;;;;;4.18;1.83;;;;;;;-2.16;87.92;94376.41;2098002;28;20469;-83
2021/03/29 04:16:31;;;;;;;2.42;1.60;;;;;;;-2.21;88.08;94374.69;2097930;28;20107;-82
2021/03/29 04:17:32;;;;;;;2.30;1.75;;;;;;;-2.17;88.15;94378.25;2097851;28;20024;-83
2021/03/29 04:18:33;;;;;;;2.38;1.48;;;;;;;-2.19;88.53;94377.81;2098099;28;20032;-81
2021/03/29 04:19:34;;;;;;;4.03;1.60;;;;;;;-2.17;88.75;94377.50;2106348;28;20035;-82
2021/03/29 04:20:35;;;;;;;2.08;1.60;;;;;;;-2.25;87.76;94368.53;2106375;28;20430;-81
2021/03/29 04:21:36;;;;;;;2.70;1.90;;;;;;;-2.24;88.58;94367.44;2097995;28;20115;-82
2021/03/29 04:22:37;;;;;;;2.80;1.95;;;;;;;-2.20;88.96;94375.47;2097872;28;20021;-82
2021/03/29 04:23:37;;;;;;;4.78;1.90;;;;;;;-2.16;88.31;94377.16;2099312;28;20458;-82
2021/03/29 04:24:38;;;;;;;2.10;1.70;;;;;;;-2.04;87.64;94377.38;2114532;28;20494;-82
2021/03/29 04:25:39;;;;;;;2.10;1.65;;;;;;;-2.13;87.71;94381.03;2129277;27;20106;-81
2021/03/29 04:26:41;;;;;;;3.13;1.50;;;;;;;-2.22;88.39;94375.78;2122539;27;20027;-83
2021/03/29 04:27:42;;;;;;;4.32;1.40;;;;;;;-2.29;88.26;94376.22;2120923;27;20416;-83
2021/03/29 04:28:42;;;;;;;1.95;1.70;;;;;;;-2.30;88.51;94379.13;2116993;27;20473;-81
2021/03/29 04:29:43;;;;;;;4.03;1.77;;;;;;;-2.26;88.57;94371.44;2112450;28;20122;-85
2021/03/29 04:30:44;;;;;;;3.47;1.60;;;;;;;-2.31;89.20;94377.59;2108614;28;20127;-81
2021/03/29 04:31:44;;;;;;;2.97;1.58;;;;;;;-2.30;88.65;94373.91;2097545;28;20408;-85
2021/03/29 04:32:47;;;;;;;8.10;2.10;;;;;;;-2.31;89.03;94381.00;2091991;28;20530;-81
2021/03/29 04:33:47;;;;;;;3.10;1.98;;;;;;;-2.31;89.08;94378.38;2098238;28;20025;-82
2021/03/29 04:34:48;;;;;;;2.47;1.63;;;;;;;-2.30;88.93;94385.16;2100568;28;21446;-82
2021/03/29 04:35:48;;;;;;;4.07;1.80;;;;;;;-2.30;89.12;94376.53;2109057;28;20085;-81
2021/03/29 04:36:49;;;;;;;3.42;1.73;;;;;;;-2.26;89.03;94385.31;2103195;28;20056;-82
2021/03/29 04:37:51;;;;;;;2.30;1.60;;;;;;;-2.35;88.51;94374.81;2089550;28;20025;-80
2021/03/29 04:38:52;;;;;;;3.55;1.88;;;;;;;-2.35;88.95;94379.28;2106667;28;20115;-81
2021/03/29 04:39:53;;;;;;;4.13;2.13;;;;;;;-2.43;88.98;94380.78;2114545;28;20815;-80
2021/03/29 04:40:53;;;;;;;2.80;1.63;;;;;;;-2.39;89.08;94381.72;2101393;28;20362;-83
2021/03/29 04:41:53;;;;;;;4.30;1.88;;;;;;;-2.39;88.69;94375.72;2106190;28;20024;-82
2021/03/29 04:42:55;;;;;;;2.20;1.73;;;;;;;-2.43;88.39;94375.53;2114521;28;20404;-82
2021/03/29 04:43:55;;;;;;;2.35;1.60;;;;;;;-2.42;87.80;94378.94;2114490;28;20049;-83
2021/03/29 04:44:56;;;;;;;2.78;1.83;;;;;;;-2.45;87.95;94376.94;2114676;28;20445;-82
2021/03/29 04:45:56;;;;;;;3.75;1.70;;;;;;;-2.41;88.06;94381.28;2101580;28;20028;-82
2021/03/29 04:46:57;;;;;;;2.00;1.80;;;;;;;-2.40;88.54;94385.41;2106104;28;20073;-82
2021/03/29 04:47:57;;;;;;;3.22;1.75;;;;;;;-2.43;88.08;94380.78;2105983;28;20536;-82
2021/03/29 04:48:57;;;;;;;3.33;1.98;;;;;;;-2.38;88.22;94382.50;2097478;28;20036;-83
2021/03/29 04:49:58;;;;;;;7.45;2.05;;;;;;;-2.42;88.25;94394.63;2101855;28;20038;-81
2021/03/29 04:50:58;;;;;;;1.95;1.70;;;;;;;-2.41;87.85;94383.13;2097693;28;20028;-84
2021/03/29 04:51:59;;;;;;;2.50;1.67;;;;;;;-2.41;88.50;94381.28;2106349;28;20038;-84
2021/03/29 04:52:59;;;;;;;3.17;2.10;;;;;;;-2.36;88.46;94390.84;2106045;28;20028;-82
2021/03/29 04:54:00;;;;;;;2.65;1.80;;;;;;;-2.37;88.68;94394.50;2109089;27;20505;-84
2021/03/29 04:55:01;;;;;;;2.47;1.50;;;;;;;-2.43;87.83;94387.88;2118563;27;20107;-81
2021/03/29 04:56:01;;;;;;;2.05;1.83;;;;;;;-2.41;88.44;94393.59;2114210;28;20055;-81